sensor_id;sensor_type;location;lat;lon;timestamp;temperature;humidity
666;DHT22;315;48.738;9.126;2023-06-10T00:00:42;18.60;99.90
666;DHT22;315;48.738;9.126;2023-06-10T00:03:08;18.60;99.90
666;DHT22;315;48.738;9.126;2023-06-10T00:05:34;18.50;99.90
666;DHT22;315;48.738;9.126;2023-06-10T00:08:01;18.40;99.90
666;DHT22;315;48.738;9.126;2023-06-10T00:10:35;18.30;99.90
666;DHT22;315;48.738;9.126;2023-06-10T00:13:05;18.20;99.90
666;DHT22;315;48.738;9.126;2023-06-10T00:15:33;18.20;99.90
666;DHT22;315;48.738;9.126;2023-06-10T00:17:59;18.10;99.90
666;DHT22;315;48.738;9.126;2023-06-10T00:20:26;18.10;99.90
666;DHT22;315;48.738;9.126;2023-06-10T00:22:51;18.10;99.90
666;DHT22;315;48.738;9.126;2023-06-10T00:25:18;18.10;99.90
666;DHT22;315;48.738;9.126;2023-06-10T00:27:44;18.10;99.90
666;DHT22;315;48.738;9.126;2023-06-10T00:30:10;18.00;99.90
666;DHT22;315;48.738;9.126;2023-06-10T00:32:36;18.00;99.90
666;DHT22;315;48.738;9.126;2023-06-10T00:35:03;17.90;99.90
666;DHT22;315;48.738;9.126;2023-06-10T00:37:29;17.90;99.90
666;DHT22;315;48.738;9.126;2023-06-10T00:39:55;17.80;99.90
666;DHT22;315;48.738;9.126;2023-06-10T00:42:21;17.80;99.90
666;DHT22;315;48.738;9.126;2023-06-10T00:44:50;17.80;99.90
666;DHT22;315;48.738;9.126;2023-06-10T00:47:16;17.70;99.90
666;DHT22;315;48.738;9.126;2023-06-10T00:49:42;17.70;99.90
666;DHT22;315;48.738;9.126;2023-06-10T00:52:08;17.60;99.90
666;DHT22;315;48.738;9.126;2023-06-10T00:54:34;17.60;99.90
666;DHT22;315;48.738;9.126;2023-06-10T00:57:01;17.60;99.90
666;DHT22;315;48.738;9.126;2023-06-10T00:59:30;17.60;99.90
666;DHT22;315;48.738;9.126;2023-06-10T01:01:59;17.60;99.90
666;DHT22;315;48.738;9.126;2023-06-10T01:04:26;17.60;99.90
666;DHT22;315;48.738;9.126;2023-06-10T01:07:22;17.60;99.90
666;DHT22;315;48.738;9.126;2023-06-10T01:10:04;17.60;99.90
666;DHT22;315;48.738;9.126;2023-06-10T01:12:39;17.50;99.90
666;DHT22;315;48.738;9.126;2023-06-10T01:15:06;17.50;99.90
666;DHT22;315;48.738;9.126;2023-06-10T01:17:33;17.40;99.90
666;DHT22;315;48.738;9.126;2023-06-10T01:19:58;17.40;99.90
666;DHT22;315;48.738;9.126;2023-06-10T01:22:25;17.40;99.90
666;DHT22;315;48.738;9.126;2023-06-10T01:24:56;17.30;99.90
666;DHT22;315;48.738;9.126;2023-06-10T01:27:27;17.30;99.90
666;DHT22;315;48.738;9.126;2023-06-10T01:30:08;17.20;99.90
666;DHT22;315;48.738;9.126;2023-06-10T01:32:43;17.10;99.90
666;DHT22;315;48.738;9.126;2023-06-10T01:35:10;17.10;99.90
666;DHT22;315;48.738;9.126;2023-06-10T01:37:40;17.10;99.90
666;DHT22;315;48.738;9.126;2023-06-10T01:40:08;17.10;99.90
666;DHT22;315;48.738;9.126;2023-06-10T01:42:35;17.00;99.90
666;DHT22;315;48.738;9.126;2023-06-10T01:45:01;17.10;99.90
666;DHT22;315;48.738;9.126;2023-06-10T01:47:26;17.20;99.90
666;DHT22;315;48.738;9.126;2023-06-10T01:49:52;17.10;99.90
666;DHT22;315;48.738;9.126;2023-06-10T01:52:18;17.00;99.90
666;DHT22;315;48.738;9.126;2023-06-10T01:54:43;17.00;99.90
666;DHT22;315;48.738;9.126;2023-06-10T01:57:09;16.80;99.90
666;DHT22;315;48.738;9.126;2023-06-10T01:59:35;16.70;99.90
666;DHT22;315;48.738;9.126;2023-06-10T02:02:01;16.70;99.90
666;DHT22;315;48.738;9.126;2023-06-10T02:04:27;16.70;99.90
666;DHT22;315;48.738;9.126;2023-06-10T02:06:53;16.70;99.90
666;DHT22;315;48.738;9.126;2023-06-10T02:09:18;16.70;99.90
666;DHT22;315;48.738;9.126;2023-06-10T02:11:44;16.70;99.90
666;DHT22;315;48.738;9.126;2023-06-10T02:14:09;16.80;99.90
666;DHT22;315;48.738;9.126;2023-06-10T02:16:35;16.80;99.90
666;DHT22;315;48.738;9.126;2023-06-10T02:19:00;16.70;99.90
666;DHT22;315;48.738;9.126;2023-06-10T02:21:26;16.60;99.90
666;DHT22;315;48.738;9.126;2023-06-10T02:23:51;16.50;99.90
666;DHT22;315;48.738;9.126;2023-06-10T02:26:17;16.50;99.90
666;DHT22;315;48.738;9.126;2023-06-10T02:28:44;16.50;99.90
666;DHT22;315;48.738;9.126;2023-06-10T02:31:09;16.40;99.90
666;DHT22;315;48.738;9.126;2023-06-10T02:33:35;16.40;99.90
666;DHT22;315;48.738;9.126;2023-06-10T02:36:05;16.40;99.90
666;DHT22;315;48.738;9.126;2023-06-10T02:38:31;16.30;99.90
666;DHT22;315;48.738;9.126;2023-06-10T02:40:56;16.30;99.90
666;DHT22;315;48.738;9.126;2023-06-10T02:43:22;16.30;99.90
666;DHT22;315;48.738;9.126;2023-06-10T02:45:47;16.30;99.90
666;DHT22;315;48.738;9.126;2023-06-10T02:48:13;16.40;99.90
666;DHT22;315;48.738;9.126;2023-06-10T02:50:38;16.40;99.90
666;DHT22;315;48.738;9.126;2023-06-10T02:53:05;16.30;99.90
666;DHT22;315;48.738;9.126;2023-06-10T02:55:31;16.40;99.90
666;DHT22;315;48.738;9.126;2023-06-10T02:57:57;16.30;99.90
666;DHT22;315;48.738;9.126;2023-06-10T03:00:23;16.30;99.90
666;DHT22;315;48.738;9.126;2023-06-10T03:02:48;16.30;99.90
666;DHT22;315;48.738;9.126;2023-06-10T03:05:14;16.30;99.90
666;DHT22;315;48.738;9.126;2023-06-10T03:07:40;16.20;99.90
666;DHT22;315;48.738;9.126;2023-06-10T03:10:06;16.20;99.90
666;DHT22;315;48.738;9.126;2023-06-10T03:12:32;16.20;99.90
666;DHT22;315;48.738;9.126;2023-06-10T03:14:57;16.10;99.90
666;DHT22;315;48.738;9.126;2023-06-10T03:17:23;16.10;99.90
666;DHT22;315;48.738;9.126;2023-06-10T03:19:49;16.10;99.90
666;DHT22;315;48.738;9.126;2023-06-10T03:22:15;16.10;99.90
666;DHT22;315;48.738;9.126;2023-06-10T03:24:41;16.00;99.90
666;DHT22;315;48.738;9.126;2023-06-10T03:27:09;16.10;99.90
666;DHT22;315;48.738;9.126;2023-06-10T03:29:39;16.10;99.90
666;DHT22;315;48.738;9.126;2023-06-10T03:32:05;16.10;99.90
666;DHT22;315;48.738;9.126;2023-06-10T03:34:31;16.20;99.90
666;DHT22;315;48.738;9.126;2023-06-10T03:36:57;16.20;99.90
666;DHT22;315;48.738;9.126;2023-06-10T03:39:22;16.20;99.90
666;DHT22;315;48.738;9.126;2023-06-10T03:41:49;16.20;99.90
666;DHT22;315;48.738;9.126;2023-06-10T03:44:14;16.20;99.90
666;DHT22;315;48.738;9.126;2023-06-10T03:46:40;16.20;99.90
666;DHT22;315;48.738;9.126;2023-06-10T03:49:06;16.10;99.90
666;DHT22;315;48.738;9.126;2023-06-10T03:51:31;16.10;99.90
666;DHT22;315;48.738;9.126;2023-06-10T03:53:57;16.10;99.90
666;DHT22;315;48.738;9.126;2023-06-10T03:56:22;16.10;99.90
666;DHT22;315;48.738;9.126;2023-06-10T03:58:48;16.20;99.90
666;DHT22;315;48.738;9.126;2023-06-10T04:01:13;16.20;99.90
666;DHT22;315;48.738;9.126;2023-06-10T04:03:39;16.30;99.90
666;DHT22;315;48.738;9.126;2023-06-10T04:06:07;16.40;99.90
666;DHT22;315;48.738;9.126;2023-06-10T04:08:32;16.40;99.90
666;DHT22;315;48.738;9.126;2023-06-10T04:10:58;16.70;99.90
666;DHT22;315;48.738;9.126;2023-06-10T04:13:24;16.70;99.90
666;DHT22;315;48.738;9.126;2023-06-10T04:15:49;16.90;99.90
666;DHT22;315;48.738;9.126;2023-06-10T04:18:15;16.90;99.90
666;DHT22;315;48.738;9.126;2023-06-10T04:20:41;16.80;99.90
666;DHT22;315;48.738;9.126;2023-06-10T04:23:07;17.00;99.90
666;DHT22;315;48.738;9.126;2023-06-10T04:25:32;17.10;99.90
666;DHT22;315;48.738;9.126;2023-06-10T04:27:58;17.10;99.90
666;DHT22;315;48.738;9.126;2023-06-10T04:30:23;17.30;99.90
666;DHT22;315;48.738;9.126;2023-06-10T04:32:49;17.40;99.90
666;DHT22;315;48.738;9.126;2023-06-10T04:35:15;17.50;99.90
666;DHT22;315;48.738;9.126;2023-06-10T04:37:41;17.80;99.90
666;DHT22;315;48.738;9.126;2023-06-10T04:40:07;17.90;99.90
666;DHT22;315;48.738;9.126;2023-06-10T04:42:34;18.10;99.90
666;DHT22;315;48.738;9.126;2023-06-10T04:44:59;18.20;99.90
666;DHT22;315;48.738;9.126;2023-06-10T04:47:26;18.30;99.90
666;DHT22;315;48.738;9.126;2023-06-10T04:49:52;18.40;99.90
666;DHT22;315;48.738;9.126;2023-06-10T04:52:17;18.60;99.90
666;DHT22;315;48.738;9.126;2023-06-10T04:54:43;18.80;99.90
666;DHT22;315;48.738;9.126;2023-06-10T04:57:09;18.90;99.90
666;DHT22;315;48.738;9.126;2023-06-10T04:59:37;19.00;99.90
666;DHT22;315;48.738;9.126;2023-06-10T05:02:04;19.20;99.90
666;DHT22;315;48.738;9.126;2023-06-10T05:04:30;19.30;99.90
666;DHT22;315;48.738;9.126;2023-06-10T05:06:55;19.40;99.90
666;DHT22;315;48.738;9.126;2023-06-10T05:09:21;19.50;99.90
666;DHT22;315;48.738;9.126;2023-06-10T05:11:46;19.70;99.90
666;DHT22;315;48.738;9.126;2023-06-10T05:14:12;19.80;99.90
666;DHT22;315;48.738;9.126;2023-06-10T05:16:38;19.80;99.90
666;DHT22;315;48.738;9.126;2023-06-10T05:19:04;19.90;99.90
666;DHT22;315;48.738;9.126;2023-06-10T05:21:30;20.10;99.90
666;DHT22;315;48.738;9.126;2023-06-10T05:23:55;20.10;99.90
666;DHT22;315;48.738;9.126;2023-06-10T05:26:21;20.30;99.90
666;DHT22;315;48.738;9.126;2023-06-10T05:28:47;20.50;99.90
666;DHT22;315;48.738;9.126;2023-06-10T05:31:13;20.70;99.90
666;DHT22;315;48.738;9.126;2023-06-10T05:33:39;20.70;99.90
666;DHT22;315;48.738;9.126;2023-06-10T05:36:05;20.80;99.90
666;DHT22;315;48.738;9.126;2023-06-10T05:38:31;20.90;99.90
666;DHT22;315;48.738;9.126;2023-06-10T05:40:56;21.00;99.90
666;DHT22;315;48.738;9.126;2023-06-10T05:43:22;21.20;99.90
666;DHT22;315;48.738;9.126;2023-06-10T05:45:47;21.30;99.90
666;DHT22;315;48.738;9.126;2023-06-10T05:48:13;21.40;99.90
666;DHT22;315;48.738;9.126;2023-06-10T05:50:39;21.60;99.90
666;DHT22;315;48.738;9.126;2023-06-10T05:53:08;21.70;99.90
666;DHT22;315;48.738;9.126;2023-06-10T05:55:41;21.90;99.90
666;DHT22;315;48.738;9.126;2023-06-10T05:58:06;22.00;99.90
666;DHT22;315;48.738;9.126;2023-06-10T06:00:32;22.20;99.90
666;DHT22;315;48.738;9.126;2023-06-10T06:02:57;22.10;99.90
666;DHT22;315;48.738;9.126;2023-06-10T06:05:24;22.20;99.90
666;DHT22;315;48.738;9.126;2023-06-10T06:07:49;22.10;99.90
666;DHT22;315;48.738;9.126;2023-06-10T06:10:17;22.30;99.90
666;DHT22;315;48.738;9.126;2023-06-10T06:12:42;22.50;99.90
666;DHT22;315;48.738;9.126;2023-06-10T06:15:08;22.70;99.90
666;DHT22;315;48.738;9.126;2023-06-10T06:17:34;22.80;99.90
666;DHT22;315;48.738;9.126;2023-06-10T06:20:00;22.90;99.90
666;DHT22;315;48.738;9.126;2023-06-10T06:22:25;23.00;99.90
666;DHT22;315;48.738;9.126;2023-06-10T06:24:51;23.10;99.90
666;DHT22;315;48.738;9.126;2023-06-10T06:27:16;23.20;99.90
666;DHT22;315;48.738;9.126;2023-06-10T06:29:42;23.30;99.90
666;DHT22;315;48.738;9.126;2023-06-10T06:32:07;23.40;99.90
666;DHT22;315;48.738;9.126;2023-06-10T06:34:33;23.40;99.90
666;DHT22;315;48.738;9.126;2023-06-10T06:36:58;23.20;99.90
666;DHT22;315;48.738;9.126;2023-06-10T06:39:24;23.40;99.90
666;DHT22;315;48.738;9.126;2023-06-10T06:41:50;23.50;99.90
666;DHT22;315;48.738;9.126;2023-06-10T06:44:15;23.50;99.90
666;DHT22;315;48.738;9.126;2023-06-10T06:46:41;23.60;99.90
666;DHT22;315;48.738;9.126;2023-06-10T06:49:06;23.80;99.90
666;DHT22;315;48.738;9.126;2023-06-10T06:51:32;24.00;99.90
666;DHT22;315;48.738;9.126;2023-06-10T06:53:57;24.20;99.90
666;DHT22;315;48.738;9.126;2023-06-10T06:56:24;24.30;99.90
666;DHT22;315;48.738;9.126;2023-06-10T06:58:50;24.40;99.90
666;DHT22;315;48.738;9.126;2023-06-10T07:01:15;24.50;99.90
666;DHT22;315;48.738;9.126;2023-06-10T07:03:41;24.60;99.90
666;DHT22;315;48.738;9.126;2023-06-10T07:06:06;24.70;99.90
666;DHT22;315;48.738;9.126;2023-06-10T07:08:32;24.70;99.70
666;DHT22;315;48.738;9.126;2023-06-10T07:10:58;24.70;99.70
666;DHT22;315;48.738;9.126;2023-06-10T07:13:23;24.70;99.80
666;DHT22;315;48.738;9.126;2023-06-10T07:15:49;24.90;99.50
666;DHT22;315;48.738;9.126;2023-06-10T07:18:15;24.80;98.80
666;DHT22;315;48.738;9.126;2023-06-10T07:20:41;24.90;98.80
666;DHT22;315;48.738;9.126;2023-06-10T07:23:07;25.10;98.40
666;DHT22;315;48.738;9.126;2023-06-10T07:25:32;25.20;98.20
666;DHT22;315;48.738;9.126;2023-06-10T07:27:57;25.30;97.60
666;DHT22;315;48.738;9.126;2023-06-10T07:30:23;25.00;97.70
666;DHT22;315;48.738;9.126;2023-06-10T07:32:49;25.10;97.60
666;DHT22;315;48.738;9.126;2023-06-10T07:35:14;25.10;97.70
666;DHT22;315;48.738;9.126;2023-06-10T07:37:40;25.00;97.50
666;DHT22;315;48.738;9.126;2023-06-10T07:40:06;25.00;97.80
666;DHT22;315;48.738;9.126;2023-06-10T07:42:33;24.80;97.80
666;DHT22;315;48.738;9.126;2023-06-10T07:44:59;24.80;97.80
666;DHT22;315;48.738;9.126;2023-06-10T07:47:25;24.70;97.80
666;DHT22;315;48.738;9.126;2023-06-10T07:49:50;24.80;97.30
666;DHT22;315;48.738;9.126;2023-06-10T07:52:16;25.00;97.80
666;DHT22;315;48.738;9.126;2023-06-10T07:54:41;24.80;97.20
666;DHT22;315;48.738;9.126;2023-06-10T07:57:07;25.00;97.30
666;DHT22;315;48.738;9.126;2023-06-10T07:59:33;25.20;96.30
666;DHT22;315;48.738;9.126;2023-06-10T08:01:58;25.50;96.60
666;DHT22;315;48.738;9.126;2023-06-10T08:04:24;25.50;96.40
666;DHT22;315;48.738;9.126;2023-06-10T08:06:50;25.70;95.80
666;DHT22;315;48.738;9.126;2023-06-10T08:09:15;25.70;95.90
666;DHT22;315;48.738;9.126;2023-06-10T08:11:41;25.60;96.20
666;DHT22;315;48.738;9.126;2023-06-10T08:14:07;25.70;95.50
666;DHT22;315;48.738;9.126;2023-06-10T08:16:32;25.70;95.60
666;DHT22;315;48.738;9.126;2023-06-10T08:18:58;25.60;96.00
666;DHT22;315;48.738;9.126;2023-06-10T08:21:23;25.60;96.40
666;DHT22;315;48.738;9.126;2023-06-10T08:23:52;25.50;95.70
666;DHT22;315;48.738;9.126;2023-06-10T08:26:18;25.80;95.60
666;DHT22;315;48.738;9.126;2023-06-10T08:28:44;25.90;95.40
666;DHT22;315;48.738;9.126;2023-06-10T08:31:09;26.30;94.60
666;DHT22;315;48.738;9.126;2023-06-10T08:33:35;26.70;94.40
666;DHT22;315;48.738;9.126;2023-06-10T08:36:00;27.10;93.40
666;DHT22;315;48.738;9.126;2023-06-10T08:38:26;27.20;92.70
666;DHT22;315;48.738;9.126;2023-06-10T08:40:56;27.20;92.40
666;DHT22;315;48.738;9.126;2023-06-10T08:43:30;27.30;92.30
666;DHT22;315;48.738;9.126;2023-06-10T08:46:00;27.50;91.10
666;DHT22;315;48.738;9.126;2023-06-10T08:48:29;27.40;91.40
666;DHT22;315;48.738;9.126;2023-06-10T08:50:57;27.60;91.60
666;DHT22;315;48.738;9.126;2023-06-10T08:53:24;27.80;90.80
666;DHT22;315;48.738;9.126;2023-06-10T08:55:51;28.00;89.90
666;DHT22;315;48.738;9.126;2023-06-10T08:58:18;28.10;88.30
666;DHT22;315;48.738;9.126;2023-06-10T09:00:44;28.30;85.70
666;DHT22;315;48.738;9.126;2023-06-10T09:03:10;28.30;86.20
666;DHT22;315;48.738;9.126;2023-06-10T09:05:37;28.40;86.30
666;DHT22;315;48.738;9.126;2023-06-10T09:08:03;28.40;85.80
666;DHT22;315;48.738;9.126;2023-06-10T09:10:29;28.70;85.70
666;DHT22;315;48.738;9.126;2023-06-10T09:12:56;29.00;84.00
666;DHT22;315;48.738;9.126;2023-06-10T09:15:22;28.90;83.80
666;DHT22;315;48.738;9.126;2023-06-10T09:17:47;29.20;82.20
666;DHT22;315;48.738;9.126;2023-06-10T09:20:13;28.70;83.20
666;DHT22;315;48.738;9.126;2023-06-10T09:22:38;28.80;82.70
666;DHT22;315;48.738;9.126;2023-06-10T09:25:09;28.70;80.70
666;DHT22;315;48.738;9.126;2023-06-10T09:27:55;28.70;79.10
666;DHT22;315;48.738;9.126;2023-06-10T09:30:34;28.80;78.00
666;DHT22;315;48.738;9.126;2023-06-10T09:33:01;29.00;79.20
666;DHT22;315;48.738;9.126;2023-06-10T09:35:29;29.30;77.50
666;DHT22;315;48.738;9.126;2023-06-10T09:37:59;29.60;76.90
666;DHT22;315;48.738;9.126;2023-06-10T09:40:25;29.70;75.90
666;DHT22;315;48.738;9.126;2023-06-10T09:43:00;30.10;74.60
666;DHT22;315;48.738;9.126;2023-06-10T09:45:32;30.50;72.70
666;DHT22;315;48.738;9.126;2023-06-10T09:47:58;30.90;70.90
666;DHT22;315;48.738;9.126;2023-06-10T09:50:23;31.60;67.80
666;DHT22;315;48.738;9.126;2023-06-10T09:52:50;31.50;66.60
666;DHT22;315;48.738;9.126;2023-06-10T09:55:16;31.40;65.90
666;DHT22;315;48.738;9.126;2023-06-10T09:57:42;31.40;65.90
666;DHT22;315;48.738;9.126;2023-06-10T10:00:11;32.10;63.20
666;DHT22;315;48.738;9.126;2023-06-10T10:02:45;32.70;61.70
666;DHT22;315;48.738;9.126;2023-06-10T10:05:14;33.40;58.80
666;DHT22;315;48.738;9.126;2023-06-10T10:07:40;33.60;56.00
666;DHT22;315;48.738;9.126;2023-06-10T10:10:06;34.00;55.90
666;DHT22;315;48.738;9.126;2023-06-10T10:12:34;34.60;53.90
666;DHT22;315;48.738;9.126;2023-06-10T10:15:00;34.90;52.90
666;DHT22;315;48.738;9.126;2023-06-10T10:17:28;35.80;51.20
666;DHT22;315;48.738;9.126;2023-06-10T10:19:59;35.00;50.30
666;DHT22;315;48.738;9.126;2023-06-10T10:22:31;34.70;50.90
666;DHT22;315;48.738;9.126;2023-06-10T10:25:02;34.90;49.30
666;DHT22;315;48.738;9.126;2023-06-10T10:27:35;35.30;48.90
666;DHT22;315;48.738;9.126;2023-06-10T10:30:02;35.40;48.50
666;DHT22;315;48.738;9.126;2023-06-10T10:32:46;36.20;47.80
666;DHT22;315;48.738;9.126;2023-06-10T10:35:21;36.10;47.10
666;DHT22;315;48.738;9.126;2023-06-10T10:37:50;36.30;47.40
666;DHT22;315;48.738;9.126;2023-06-10T10:40:17;35.50;46.50
666;DHT22;315;48.738;9.126;2023-06-10T10:42:43;34.90;47.50
666;DHT22;315;48.738;9.126;2023-06-10T10:45:09;35.00;47.40
666;DHT22;315;48.738;9.126;2023-06-10T10:47:36;34.80;47.90
666;DHT22;315;48.738;9.126;2023-06-10T10:50:14;35.00;46.30
666;DHT22;315;48.738;9.126;2023-06-10T10:52:58;34.40;46.80
666;DHT22;315;48.738;9.126;2023-06-10T10:55:25;33.70;47.20
666;DHT22;315;48.738;9.126;2023-06-10T10:57:59;33.30;48.10
666;DHT22;315;48.738;9.126;2023-06-10T11:00:42;32.40;49.20
666;DHT22;315;48.738;9.126;2023-06-10T11:03:13;32.40;49.70
666;DHT22;315;48.738;9.126;2023-06-10T11:05:44;32.70;49.30
666;DHT22;315;48.738;9.126;2023-06-10T11:08:13;33.10;49.30
666;DHT22;315;48.738;9.126;2023-06-10T11:10:40;32.90;48.60
666;DHT22;315;48.738;9.126;2023-06-10T11:13:14;32.70;49.10
666;DHT22;315;48.738;9.126;2023-06-10T11:15:45;33.00;48.70
666;DHT22;315;48.738;9.126;2023-06-10T11:20:53;32.60;47.80
666;DHT22;315;48.738;9.126;2023-06-10T11:31:21;38.60;45.00
666;DHT22;315;48.738;9.126;2023-06-10T11:33:48;38.70;43.90
666;DHT22;315;48.738;9.126;2023-06-10T11:36:14;38.40;43.70
666;DHT22;315;48.738;9.126;2023-06-10T11:38:43;36.70;44.50
666;DHT22;315;48.738;9.126;2023-06-10T11:41:11;35.10;45.90
666;DHT22;315;48.738;9.126;2023-06-10T11:43:37;33.80;47.50
666;DHT22;315;48.738;9.126;2023-06-10T11:46:02;34.10;48.40
666;DHT22;315;48.738;9.126;2023-06-10T11:48:28;34.40;48.00
666;DHT22;315;48.738;9.126;2023-06-10T11:50:55;34.70;47.90
666;DHT22;315;48.738;9.126;2023-06-10T11:53:21;34.20;47.90
666;DHT22;315;48.738;9.126;2023-06-10T11:55:48;33.80;47.80
666;DHT22;315;48.738;9.126;2023-06-10T11:58:21;33.90;48.20
666;DHT22;315;48.738;9.126;2023-06-10T12:00:52;34.00;47.80
666;DHT22;315;48.738;9.126;2023-06-10T12:03:19;33.40;48.60
666;DHT22;315;48.738;9.126;2023-06-10T12:08:24;34.50;47.20
666;DHT22;315;48.738;9.126;2023-06-10T12:10:50;36.40;46.10
666;DHT22;315;48.738;9.126;2023-06-10T12:13:16;37.30;44.30
666;DHT22;315;48.738;9.126;2023-06-10T12:15:43;37.80;43.40
666;DHT22;315;48.738;9.126;2023-06-10T12:18:19;39.60;42.60
666;DHT22;315;48.738;9.126;2023-06-10T12:20:45;40.90;40.90
666;DHT22;315;48.738;9.126;2023-06-10T12:23:11;41.50;40.30
666;DHT22;315;48.738;9.126;2023-06-10T12:25:38;42.10;40.00
666;DHT22;315;48.738;9.126;2023-06-10T12:28:04;40.90;40.00
666;DHT22;315;48.738;9.126;2023-06-10T12:30:31;39.00;40.90
666;DHT22;315;48.738;9.126;2023-06-10T12:32:57;36.50;43.00
666;DHT22;315;48.738;9.126;2023-06-10T12:35:25;35.50;44.00
666;DHT22;315;48.738;9.126;2023-06-10T12:37:59;34.10;45.50
666;DHT22;315;48.738;9.126;2023-06-10T12:40:37;33.80;45.90
666;DHT22;315;48.738;9.126;2023-06-10T12:43:03;33.50;46.50
666;DHT22;315;48.738;9.126;2023-06-10T12:48:18;32.80;47.50
666;DHT22;315;48.738;9.126;2023-06-10T12:50:46;32.00;47.70
666;DHT22;315;48.738;9.126;2023-06-10T12:53:12;31.80;48.40
666;DHT22;315;48.738;9.126;2023-06-10T12:55:38;31.20;49.50
666;DHT22;315;48.738;9.126;2023-06-10T12:58:04;31.10;49.60
666;DHT22;315;48.738;9.126;2023-06-10T13:00:29;31.00;49.60
666;DHT22;315;48.738;9.126;2023-06-10T13:03:00;31.00;49.20
666;DHT22;315;48.738;9.126;2023-06-10T13:05:26;31.10;49.30
666;DHT22;315;48.738;9.126;2023-06-10T13:07:52;31.40;49.10
666;DHT22;315;48.738;9.126;2023-06-10T13:10:18;32.00;49.30
666;DHT22;315;48.738;9.126;2023-06-10T13:12:44;33.70;48.00
666;DHT22;315;48.738;9.126;2023-06-10T13:15:10;35.80;45.70
666;DHT22;315;48.738;9.126;2023-06-10T13:17:36;37.30;43.70
666;DHT22;315;48.738;9.126;2023-06-10T13:20:07;38.20;43.00
666;DHT22;315;48.738;9.126;2023-06-10T13:22:33;38.20;42.80
666;DHT22;315;48.738;9.126;2023-06-10T13:25:03;39.00;41.00
666;DHT22;315;48.738;9.126;2023-06-10T13:27:29;39.30;40.90
666;DHT22;315;48.738;9.126;2023-06-10T13:29:54;39.20;40.90
666;DHT22;315;48.738;9.126;2023-06-10T13:32:20;39.40;40.70
666;DHT22;315;48.738;9.126;2023-06-10T13:34:46;39.40;40.70
666;DHT22;315;48.738;9.126;2023-06-10T13:37:12;38.40;41.10
666;DHT22;315;48.738;9.126;2023-06-10T13:39:42;38.10;41.50
666;DHT22;315;48.738;9.126;2023-06-10T13:42:08;37.30;41.50
666;DHT22;315;48.738;9.126;2023-06-10T13:44:34;36.50;42.50
666;DHT22;315;48.738;9.126;2023-06-10T13:47:02;35.70;42.90
666;DHT22;315;48.738;9.126;2023-06-10T13:49:28;34.80;43.40
666;DHT22;315;48.738;9.126;2023-06-10T13:51:53;34.20;44.60
666;DHT22;315;48.738;9.126;2023-06-10T13:54:19;34.00;45.30
666;DHT22;315;48.738;9.126;2023-06-10T13:56:44;34.30;44.40
666;DHT22;315;48.738;9.126;2023-06-10T13:59:10;34.10;44.20
666;DHT22;315;48.738;9.126;2023-06-10T14:01:35;33.80;45.00
666;DHT22;315;48.738;9.126;2023-06-10T14:04:01;33.50;45.00
666;DHT22;315;48.738;9.126;2023-06-10T14:06:27;33.20;45.80
666;DHT22;315;48.738;9.126;2023-06-10T14:08:53;33.10;45.50
666;DHT22;315;48.738;9.126;2023-06-10T14:11:20;32.70;45.90
666;DHT22;315;48.738;9.126;2023-06-10T14:13:46;32.50;46.20
666;DHT22;315;48.738;9.126;2023-06-10T14:16:12;32.00;46.70
666;DHT22;315;48.738;9.126;2023-06-10T14:18:37;31.60;47.10
666;DHT22;315;48.738;9.126;2023-06-10T14:21:03;31.20;47.40
666;DHT22;315;48.738;9.126;2023-06-10T14:23:28;31.10;47.90
666;DHT22;315;48.738;9.126;2023-06-10T14:25:54;30.90;47.80
666;DHT22;315;48.738;9.126;2023-06-10T14:28:20;30.70;48.20
666;DHT22;315;48.738;9.126;2023-06-10T14:30:45;30.60;48.20
666;DHT22;315;48.738;9.126;2023-06-10T14:33:11;30.50;48.20
666;DHT22;315;48.738;9.126;2023-06-10T14:35:36;30.60;48.60
666;DHT22;315;48.738;9.126;2023-06-10T14:38:02;30.80;48.70
666;DHT22;315;48.738;9.126;2023-06-10T14:40:28;30.80;47.90
666;DHT22;315;48.738;9.126;2023-06-10T14:42:55;31.00;48.00
666;DHT22;315;48.738;9.126;2023-06-10T14:45:20;31.10;47.60
666;DHT22;315;48.738;9.126;2023-06-10T14:47:46;31.00;47.60
666;DHT22;315;48.738;9.126;2023-06-10T14:50:12;31.00;47.60
666;DHT22;315;48.738;9.126;2023-06-10T14:52:38;30.80;47.60
666;DHT22;315;48.738;9.126;2023-06-10T14:55:04;30.50;48.10
666;DHT22;315;48.738;9.126;2023-06-10T14:57:29;30.40;47.90
666;DHT22;315;48.738;9.126;2023-06-10T14:59:55;30.20;47.70
666;DHT22;315;48.738;9.126;2023-06-10T15:02:22;30.20;48.10
666;DHT22;315;48.738;9.126;2023-06-10T15:04:47;30.00;48.20
666;DHT22;315;48.738;9.126;2023-06-10T15:07:13;30.20;49.30
666;DHT22;315;48.738;9.126;2023-06-10T15:09:41;30.40;48.70
666;DHT22;315;48.738;9.126;2023-06-10T15:12:07;30.30;48.90
666;DHT22;315;48.738;9.126;2023-06-10T15:14:33;30.10;49.30
666;DHT22;315;48.738;9.126;2023-06-10T15:16:58;30.00;49.50
666;DHT22;315;48.738;9.126;2023-06-10T15:19:25;29.90;49.70
666;DHT22;315;48.738;9.126;2023-06-10T15:21:51;29.70;49.90
666;DHT22;315;48.738;9.126;2023-06-10T15:24:17;29.60;50.00
666;DHT22;315;48.738;9.126;2023-06-10T15:26:43;29.60;50.10
666;DHT22;315;48.738;9.126;2023-06-10T15:29:08;29.50;49.70
666;DHT22;315;48.738;9.126;2023-06-10T15:31:34;29.50;49.60
666;DHT22;315;48.738;9.126;2023-06-10T15:34:00;29.00;50.60
666;DHT22;315;48.738;9.126;2023-06-10T15:36:26;28.90;51.40
666;DHT22;315;48.738;9.126;2023-06-10T15:38:53;28.70;51.70
666;DHT22;315;48.738;9.126;2023-06-10T15:41:19;28.80;52.00
666;DHT22;315;48.738;9.126;2023-06-10T15:43:45;28.70;51.60
666;DHT22;315;48.738;9.126;2023-06-10T15:46:11;28.70;51.60
666;DHT22;315;48.738;9.126;2023-06-10T15:48:37;28.70;52.00
666;DHT22;315;48.738;9.126;2023-06-10T15:51:02;28.60;51.90
666;DHT22;315;48.738;9.126;2023-06-10T15:53:28;28.70;51.70
666;DHT22;315;48.738;9.126;2023-06-10T15:55:53;28.60;52.20
666;DHT22;315;48.738;9.126;2023-06-10T15:58:19;28.70;51.90
666;DHT22;315;48.738;9.126;2023-06-10T16:00:44;28.80;51.50
666;DHT22;315;48.738;9.126;2023-06-10T16:03:10;28.80;51.20
666;DHT22;315;48.738;9.126;2023-06-10T16:05:35;28.90;51.50
666;DHT22;315;48.738;9.126;2023-06-10T16:08:01;28.90;51.70
666;DHT22;315;48.738;9.126;2023-06-10T16:10:26;28.90;52.30
666;DHT22;315;48.738;9.126;2023-06-10T16:12:52;28.90;51.60
666;DHT22;315;48.738;9.126;2023-06-10T16:15:17;28.90;52.40
666;DHT22;315;48.738;9.126;2023-06-10T16:17:43;28.90;51.90
666;DHT22;315;48.738;9.126;2023-06-10T16:20:09;28.70;52.00
666;DHT22;315;48.738;9.126;2023-06-10T16:22:35;28.60;51.60
666;DHT22;315;48.738;9.126;2023-06-10T16:25:00;28.60;51.00
666;DHT22;315;48.738;9.126;2023-06-10T16:27:26;28.40;50.70
666;DHT22;315;48.738;9.126;2023-06-10T16:29:52;28.20;51.00
666;DHT22;315;48.738;9.126;2023-06-10T16:32:18;28.10;51.80
666;DHT22;315;48.738;9.126;2023-06-10T16:34:43;28.00;52.20
666;DHT22;315;48.738;9.126;2023-06-10T16:37:09;28.00;52.60
666;DHT22;315;48.738;9.126;2023-06-10T16:39:35;27.90;52.90
666;DHT22;315;48.738;9.126;2023-06-10T16:42:01;27.90;53.00
666;DHT22;315;48.738;9.126;2023-06-10T16:44:26;27.80;53.30
666;DHT22;315;48.738;9.126;2023-06-10T16:46:52;27.70;53.60